Aeroporto :
LOGIN :

Iscrizione | Disclaimer

   EN    FR    IT 

 










Sommario :    VFR   VFR Marginale   IFR   IFR Intensivo   IFR Molto Intensivo
Visibilità : 
Base nubi : 
>= 8 km
>= 3000ft
5 / 8 km
1000 / 3000 ft
1500m / 5 km
500 / 1000 ft
800 / 1500m
200 / 500 ft
< 800m
< 200 ft
Simboli :   Temporali  Nebbia  Neve Forte  Precipitazioni Forti  Vento > 20 kt
SIGMETs :   Varie  Temporali  Ghiacco  Turbolenza  Onda orograficha  Ceneri Vulcaniche






- Altitudine del aeroporto : 74 ft
- Codice IATA : MRS


LFML - Marseille / Marignane

ULTIMO METAR :
  • 250430Z AUTO 07005KT 9999 BKN038/// OVC064/// ///TCU 10/09 Q1021 TEMPO 2000 BR BECMG BKN040

METARs OBSOLETI :
  • 250400Z AUTO 08009KT 9999 BKN037/// BKN044/// OVC064/// ///TCU 10/09 Q1021 TEMPO 2000 BR BECMG BKN040
  • 250330Z AUTO VRB02KT 9999 -RA BKN035 OVC042 10/09 Q1021 TEMPO 2000 BR
  • 250300Z AUTO VRB01KT 6000 OVC034 10/09 Q1022 TEMPO 2000 BR
  • 250230Z AUTO 00000KT 5000 BR BKN036 BKN043 OVC058 10/09 Q1022 TEMPO 0800 FG
  • 250200Z AUTO VRB01KT 4200 BR BKN042 OVC058 10/09 Q1022 TEMPO 0800 FG

TAF TAF LFML
Valido dal 25 a 03 ore il 26 a 09 ore UTC


250200Z 2503/2609 VRB02KT 6000 BKN040 TX14/2513Z TN08/2506Z
TEMPO 2503/2507 2000 BR
TEMPO 2512/2609 13012KT 2000 SHRA BKN040TCU
ATIS : +33 4 42 31 15 15



MetMap, La meteo Aeronautica in un colpo d'occhio ! - Copyright ORBIFLY Dicembre 2007 - Disclaimer

ORBIFLY MET'MAP TEAM :

Programmazione e sviluppo : Alexandra Zaïnal
Concezione : Baudouin d'Aumeries
Aiuto per la programmazione : Marc-Olivier Méhu
Supporto tecnico e logistico : Manuel Goepfert
Aiuto per la traduzione : Arnaldo La Scala

Contatto : metmap@orbifly.com




FONTI E CREDITI :

   NOAA